Salem, NH (03079)

3:44 PM EDT on June 30, 2015 (GMT -0400)
N1EXT | | Change Station
CLOSE
Current Station
Personal Weather Station
Location: Salem, NH
Elevation: 233 ft
Nearby Weather Stations

Elev 233 ft 42.80 °N, 71.21 °W | Updated 20 seconds ago

Partly Cloudy
Partly Cloudy
80.8 °F
Feels Like 79 °F
N
0.0
Wind Variable Wind from NE
Gusts 0.0 mph

Today
High -- | Low -- °F
--% Chance of Precip.
Yesterday
High -- | Low -- °F
Precip. -- in
5:09 AM 8:27 PM
Waxing Gibbous, 98% visible
Pressure 29.98 in
Visibility 10.0 miles
Clouds Scattered Clouds 5500 ft
Heat Index 79 °F
Dew Point 38 °F
Humidity 22%
Rainfall in
Snow Depth Not available.
UV 8 out of 12
Pollen 4.20 out of 12
Air Quality Not available.
Flu Activity Sporadic
METAR KLWM 301854Z 20007KT 10SM SCT055 27/14 A2998 RMK AO2 SLP152 T02720139

More Conditions Fewer Conditions

Pressure 29.98 in
Visibility 10.0 miles
Clouds Scattered Clouds 5500 ft
Heat Index 79 °F
Dew Point 38 °F
Humidity 22%
Rainfall in
Snow Depth Not available.
UV 8 out of 12
Pollen 4.20 out of 12
Air Quality Not available.
Flu Activity Sporadic
METAR KLWM 301854Z 20007KT 10SM SCT055 27/14 A2998 RMK AO2 SLP152 T02720139

More Conditions Fewer Conditions

10-Day Weather Forecast

×

Almanac

Astronomy

Jun. 30, 2015 Rise Set
Actual Time
Civil Twilight
Nautical Twilight
Astronomical Twilight
Moon
Length of Visible Light
Length of Day
Tomorrow will be .
, % of the Moon is Illuminated

Today's Extremes

State Highs State Lows

Community

WunderPhotos

Upload Photos

1,834,067 photos uploaded!

WunderBlogs® & News

Nearby

Air Quality

  Air Quality AQ Index Pollutant
Not available.

Snow Depth

Station Depth Elevation

Earthquake Activity

City Distance Mag. Time & Date
Minimum magnitude displayed is 2.5.

Coastal Water Temperatures

Place Temperature

Stations

Nearby Weather Stations

Station Location Temp. Windchill Dew Point Humidity Wind Precip. Elev Updated Type